sensor_id;sensor_type;location;lat;lon;timestamp;pressure;altitude;pressure_sealevel;temperature;humidity
4415;BME280;2220;42.670;23.398;2024-02-26T00:02:05;94328.13;;;9.47;100.00
4415;BME280;2220;42.670;23.398;2024-02-26T00:04:32;94332.78;;;9.40;100.00
4415;BME280;2220;42.670;23.398;2024-02-26T00:06:57;94321.88;;;9.43;100.00
4415;BME280;2220;42.670;23.398;2024-02-26T00:09:23;94317.72;;;9.52;100.00
4415;BME280;2220;42.670;23.398;2024-02-26T00:11:49;94307.84;;;9.49;100.00
4415;BME280;2220;42.670;23.398;2024-02-26T00:14:14;94308.34;;;9.51;100.00
4415;BME280;2220;42.670;23.398;2024-02-26T00:16:40;94313.03;;;9.54;100.00
4415;BME280;2220;42.670;23.398;2024-02-26T00:19:06;94312.00;;;9.55;100.00
4415;BME280;2220;42.670;23.398;2024-02-26T00:21:32;94323.44;;;9.59;100.00
4415;BME280;2220;42.670;23.398;2024-02-26T00:23:57;94314.06;;;9.38;100.00
4415;BME280;2220;42.670;23.398;2024-02-26T00:26:22;94291.19;;;9.45;100.00
4415;BME280;2220;42.670;23.398;2024-02-26T00:28:48;94272.22;;;9.49;100.00
4415;BME280;2220;42.670;23.398;2024-02-26T00:31:13;94254.03;;;9.44;100.00
4415;BME280;2220;42.670;23.398;2024-02-26T00:33:39;94241.28;;;9.48;100.00
4415;BME280;2220;42.670;23.398;2024-02-26T00:36:05;94219.19;;;9.40;100.00
4415;BME280;2220;42.670;23.398;2024-02-26T00:38:30;94208.25;;;9.38;100.00
4415;BME280;2220;42.670;23.398;2024-02-26T00:40:55;94198.91;;;9.42;100.00
4415;BME280;2220;42.670;23.398;2024-02-26T00:43:21;94192.94;;;9.42;100.00
4415;BME280;2220;42.670;23.398;2024-02-26T00:45:46;94182.53;;;9.42;100.00
4415;BME280;2220;42.670;23.398;2024-02-26T00:48:12;94172.16;;;9.42;100.00
4415;BME280;2220;42.670;23.398;2024-02-26T00:50:39;94176.06;;;9.55;100.00
4415;BME280;2220;42.670;23.398;2024-02-26T00:53:05;94170.56;;;9.61;100.00
4415;BME280;2220;42.670;23.398;2024-02-26T00:55:30;94178.59;;;9.70;100.00
4415;BME280;2220;42.670;23.398;2024-02-26T00:57:55;94176.03;;;9.65;100.00
4415;BME280;2220;42.670;23.398;2024-02-26T01:00:21;94177.81;;;9.74;100.00
4415;BME280;2220;42.670;23.398;2024-02-26T01:02:47;94167.94;;;9.81;100.00
4415;BME280;2220;42.670;23.398;2024-02-26T01:05:13;94180.94;;;9.87;100.00
4415;BME280;2220;42.670;23.398;2024-02-26T01:07:38;94187.16;;;9.91;100.00
4415;BME280;2220;42.670;23.398;2024-02-26T01:10:05;94189.75;;;9.91;100.00
4415;BME280;2220;42.670;23.398;2024-02-26T01:12:35;94197.00;;;9.94;100.00
4415;BME280;2220;42.670;23.398;2024-02-26T01:15:01;94204.31;;;9.92;100.00
4415;BME280;2220;42.670;23.398;2024-02-26T01:17:28;94203.81;;;9.85;100.00
4415;BME280;2220;42.670;23.398;2024-02-26T01:19:53;94205.13;;;9.82;100.00
4415;BME280;2220;42.670;23.398;2024-02-26T01:22:19;94209.03;;;9.79;100.00
4415;BME280;2220;42.670;23.398;2024-02-26T01:24:45;94203.56;;;9.81;100.00
4415;BME280;2220;42.670;23.398;2024-02-26T01:27:10;94206.16;;;9.76;100.00
4415;BME280;2220;42.670;23.398;2024-02-26T01:29:36;94213.16;;;9.86;100.00
4415;BME280;2220;42.670;23.398;2024-02-26T01:32:01;94219.41;;;9.90;100.00
4415;BME280;2220;42.670;23.398;2024-02-26T01:34:28;94229.03;;;9.89;100.00
4415;BME280;2220;42.670;23.398;2024-02-26T01:36:53;94231.63;;;9.89;100.00
4415;BME280;2220;42.670;23.398;2024-02-26T01:39:18;94225.13;;;9.92;100.00
4415;BME280;2220;42.670;23.398;2024-02-26T01:41:44;94233.19;;;9.95;100.00
4415;BME280;2220;42.670;23.398;2024-02-26T01:44:12;94232.16;;;9.91;100.00
4415;BME280;2220;42.670;23.398;2024-02-26T01:46:38;94226.69;;;9.82;100.00
4415;BME280;2220;42.670;23.398;2024-02-26T01:49:04;94216.84;;;9.79;100.00
4415;BME280;2220;42.670;23.398;2024-02-26T01:51:30;94219.94;;;9.76;100.00
4415;BME280;2220;42.670;23.398;2024-02-26T01:53:56;94210.31;;;9.77;100.00
4415;BME280;2220;42.670;23.398;2024-02-26T01:56:23;94204.63;;;9.49;100.00
4415;BME280;2220;42.670;23.398;2024-02-26T01:58:53;94188.78;;;9.56;100.00
4415;BME280;2220;42.670;23.398;2024-02-26T02:01:19;94183.03;;;9.54;100.00
4415;BME280;2220;42.670;23.398;2024-02-26T02:03:47;94168.50;;;9.38;100.00
4415;BME280;2220;42.670;23.398;2024-02-26T02:06:13;94164.06;;;9.38;100.00
4415;BME280;2220;42.670;23.398;2024-02-26T02:08:38;94144.88;;;9.24;100.00
4415;BME280;2220;42.670;23.398;2024-02-26T02:11:04;94133.19;;;9.32;100.00
4415;BME280;2220;42.670;23.398;2024-02-26T02:13:29;94113.16;;;9.22;100.00
4415;BME280;2220;42.670;23.398;2024-02-26T02:15:55;94102.78;;;9.22;100.00
4415;BME280;2220;42.670;23.398;2024-02-26T02:18:20;94092.41;;;9.12;100.00
4415;BME280;2220;42.670;23.398;2024-02-26T02:20:46;94089.28;;;9.15;100.00
4415;BME280;2220;42.670;23.398;2024-02-26T02:23:11;94094.50;;;9.15;100.00
4415;BME280;2220;42.670;23.398;2024-02-26T02:25:36;94080.72;;;9.14;100.00
4415;BME280;2220;42.670;23.398;2024-02-26T02:28:02;94084.34;;;9.18;100.00
4415;BME280;2220;42.670;23.398;2024-02-26T02:30:29;94088.75;;;9.18;100.00
4415;BME280;2220;42.670;23.398;2024-02-26T02:32:57;94094.97;;;9.22;100.00
4415;BME280;2220;42.670;23.398;2024-02-26T02:35:23;94093.41;;;9.26;100.00
4415;BME280;2220;42.670;23.398;2024-02-26T02:37:51;94102.50;;;9.29;100.00
4415;BME280;2220;42.670;23.398;2024-02-26T02:40:17;94105.63;;;9.36;100.00
4415;BME280;2220;42.670;23.398;2024-02-26T02:42:42;94109.00;;;9.31;100.00
4415;BME280;2220;42.670;23.398;2024-02-26T02:45:08;94111.59;;;9.41;100.00
4415;BME280;2220;42.670;23.398;2024-02-26T02:47:36;94117.03;;;9.55;100.00
4415;BME280;2220;42.670;23.398;2024-02-26T02:50:02;94118.31;;;9.63;100.00
4415;BME280;2220;42.670;23.398;2024-02-26T02:52:27;94126.34;;;9.71;100.00
4415;BME280;2220;42.670;23.398;2024-02-26T02:54:52;94138.31;;;9.72;100.00
4415;BME280;2220;42.670;23.398;2024-02-26T02:57:18;94148.16;;;9.80;100.00
4415;BME280;2220;42.670;23.398;2024-02-26T02:59:43;94155.44;;;9.89;100.00
4415;BME280;2220;42.670;23.398;2024-02-26T03:02:09;94167.38;;;9.85;100.00
4415;BME280;2220;42.670;23.398;2024-02-26T03:04:34;94182.25;;;9.74;100.00
4415;BME280;2220;42.670;23.398;2024-02-26T03:07:00;94196.56;;;9.66;100.00
4415;BME280;2220;42.670;23.398;2024-02-26T03:09:25;94194.97;;;9.70;100.00
4415;BME280;2220;42.670;23.398;2024-02-26T03:11:51;94205.91;;;9.72;100.00
4415;BME280;2220;42.670;23.398;2024-02-26T03:14:16;94212.44;;;9.65;100.00
4415;BME280;2220;42.670;23.398;2024-02-26T03:19:18;94209.31;;;9.52;100.00
4415;BME280;2220;42.670;23.398;2024-02-26T03:21:43;94217.38;;;9.51;100.00
4415;BME280;2220;42.670;23.398;2024-02-26T03:24:09;94197.34;;;9.51;100.00
4415;BME280;2220;42.670;23.398;2024-02-26T03:26:36;94200.75;;;9.47;100.00
4415;BME280;2220;42.670;23.398;2024-02-26T03:29:01;94189.31;;;9.43;100.00
4415;BME280;2220;42.670;23.398;2024-02-26T03:31:28;94190.31;;;9.52;100.00
4415;BME280;2220;42.670;23.398;2024-02-26T03:33:53;94174.97;;;9.61;100.00
4415;BME280;2220;42.670;23.398;2024-02-26T03:36:18;94169.78;;;9.66;100.00
4415;BME280;2220;42.670;23.398;2024-02-26T03:38:44;94175.25;;;9.64;100.00
4415;BME280;2220;42.670;23.398;2024-02-26T03:41:10;94167.19;;;9.66;100.00
4415;BME280;2220;42.670;23.398;2024-02-26T03:43:35;94163.03;;;9.60;100.00
4415;BME280;2220;42.670;23.398;2024-02-26T03:46:00;94151.59;;;9.45;100.00
4415;BME280;2220;42.670;23.398;2024-02-26T03:48:26;94149.81;;;9.41;100.00
4415;BME280;2220;42.670;23.398;2024-02-26T03:50:51;94123.56;;;9.17;100.00
4415;BME280;2220;42.670;23.398;2024-02-26T03:53:17;94106.16;;;9.17;100.00
4415;BME280;2220;42.670;23.398;2024-02-26T03:55:43;94098.38;;;9.07;100.00
4415;BME280;2220;42.670;23.398;2024-02-26T03:58:08;94075.25;;;9.06;100.00
4415;BME280;2220;42.670;23.398;2024-02-26T04:00:34;94067.19;;;9.12;100.00
4415;BME280;2220;42.670;23.398;2024-02-26T04:02:59;94059.13;;;9.19;100.00
4415;BME280;2220;42.670;23.398;2024-02-26T04:05:25;94053.44;;;9.12;100.00
4415;BME280;2220;42.670;23.398;2024-02-26T04:07:50;94049.28;;;9.16;100.00
4415;BME280;2220;42.670;23.398;2024-02-26T04:10:16;94043.81;;;9.12;100.00
4415;BME280;2220;42.670;23.398;2024-02-26T04:12:42;94033.69;;;9.11;100.00
4415;BME280;2220;42.670;23.398;2024-02-26T04:15:08;94031.88;;;9.16;100.00
4415;BME280;2220;42.670;23.398;2024-02-26T04:17:34;94017.31;;;9.10;100.00
4415;BME280;2220;42.670;23.398;2024-02-26T04:19:59;94011.84;;;9.17;100.00
4415;BME280;2220;42.670;23.398;2024-02-26T04:22:25;94004.34;;;9.10;100.00
4415;BME280;2220;42.670;23.398;2024-02-26T04:24:50;94001.47;;;9.17;100.00
4415;BME280;2220;42.670;23.398;2024-02-26T04:27:15;93996.00;;;9.18;100.00
4415;BME280;2220;42.670;23.398;2024-02-26T04:29:41;93998.31;;;9.20;100.00
4415;BME280;2220;42.670;23.398;2024-02-26T04:32:06;93988.75;;;9.15;100.00
4415;BME280;2220;42.670;23.398;2024-02-26T04:34:32;93981.25;;;8.99;100.00
4415;BME280;2220;42.670;23.398;2024-02-26T04:36:57;93993.94;;;9.05;100.00
4415;BME280;2220;42.670;23.398;2024-02-26T04:39:22;93995.53;;;9.01;100.00
4415;BME280;2220;42.670;23.398;2024-02-26T04:41:48;93982.31;;;8.77;100.00
4415;BME280;2220;42.670;23.398;2024-02-26T04:44:13;93978.41;;;8.90;100.00
4415;BME280;2220;42.670;23.398;2024-02-26T04:46:38;93978.69;;;8.83;100.00
4415;BME280;2220;42.670;23.398;2024-02-26T04:49:04;93989.88;;;8.63;100.00
4415;BME280;2220;42.670;23.398;2024-02-26T04:51:29;93979.75;;;8.57;100.00
4415;BME280;2220;42.670;23.398;2024-02-26T04:53:55;93973.78;;;8.46;100.00
4415;BME280;2220;42.670;23.398;2024-02-26T04:56:21;93967.53;;;8.42;100.00
4415;BME280;2220;42.670;23.398;2024-02-26T04:58:47;93977.16;;;8.41;100.00
4415;BME280;2220;42.670;23.398;2024-02-26T05:01:12;93952.50;;;8.54;100.00
4415;BME280;2220;42.670;23.398;2024-02-26T05:03:37;93935.38;;;8.53;100.00
4415;BME280;2220;42.670;23.398;2024-02-26T05:06:04;93952.50;;;8.39;100.00
4415;BME280;2220;42.670;23.398;2024-02-26T05:08:30;93957.69;;;8.39;100.00
4415;BME280;2220;42.670;23.398;2024-02-26T05:10:56;93957.91;;;8.17;100.00
4415;BME280;2220;42.670;23.398;2024-02-26T05:13:22;93985.38;;;7.82;100.00
4415;BME280;2220;42.670;23.398;2024-02-26T05:15:47;93973.47;;;7.87;100.00
4415;BME280;2220;42.670;23.398;2024-02-26T05:18:15;93953.72;;;7.85;100.00
4415;BME280;2220;42.670;23.398;2024-02-26T05:20:40;93950.88;;;7.72;100.00
4415;BME280;2220;42.670;23.398;2024-02-26T05:23:06;93922.38;;;7.72;100.00
4415;BME280;2220;42.670;23.398;2024-02-26T05:25:31;93894.13;;;7.70;100.00
4415;BME280;2220;42.670;23.398;2024-02-26T05:27:56;93868.72;;;7.62;100.00
4415;BME280;2220;42.670;23.398;2024-02-26T05:30:22;93831.63;;;7.67;100.00
4415;BME280;2220;42.670;23.398;2024-02-26T05:32:47;93792.75;;;7.77;100.00
4415;BME280;2220;42.670;23.398;2024-02-26T05:35:13;93751.81;;;7.74;100.00
4415;BME280;2220;42.670;23.398;2024-02-26T05:37:38;93730.03;;;7.75;100.00
4415;BME280;2220;42.670;23.398;2024-02-26T05:40:05;93703.25;;;8.05;100.00
4415;BME280;2220;42.670;23.398;2024-02-26T05:42:30;93675.31;;;7.87;100.00
4415;BME280;2220;42.670;23.398;2024-02-26T05:44:56;93644.66;;;7.99;100.00
4415;BME280;2220;42.670;23.398;2024-02-26T05:47:22;93596.25;;;8.38;100.00
4415;BME280;2220;42.670;23.398;2024-02-26T05:49:47;93603.47;;;8.47;100.00
4415;BME280;2220;42.670;23.398;2024-02-26T05:52:14;93604.75;;;8.49;100.00
4415;BME280;2220;42.670;23.398;2024-02-26T05:54:39;93617.63;;;8.64;100.00
4415;BME280;2220;42.670;23.398;2024-02-26T05:57:05;93623.78;;;8.74;100.00
4415;BME280;2220;42.670;23.398;2024-02-26T05:59:32;93654.72;;;8.65;100.00
4415;BME280;2220;42.670;23.398;2024-02-26T06:01:58;93676.59;;;8.59;100.00
4415;BME280;2220;42.670;23.398;2024-02-26T06:04:24;93683.03;;;8.66;100.00
4415;BME280;2220;42.670;23.398;2024-02-26T06:06:49;93685.59;;;8.72;100.00
4415;BME280;2220;42.670;23.398;2024-02-26T06:09:17;93622.34;;;9.25;100.00
4415;BME280;2220;42.670;23.398;2024-02-26T06:11:43;93661.13;;;9.17;100.00
4415;BME280;2220;42.670;23.398;2024-02-26T06:14:08;93689.16;;;9.20;100.00
4415;BME280;2220;42.670;23.398;2024-02-26T06:16:35;93746.09;;;9.16;100.00
4415;BME280;2220;42.670;23.398;2024-02-26T06:19:01;93779.69;;;9.03;100.00
4415;BME280;2220;42.670;23.398;2024-02-26T06:21:26;93816.28;;;9.06;100.00
